createdAt,value
2017-12-10T00:00:06.840Z,2.87
2017-12-10T00:02:40.428Z,2.33
2017-12-10T00:05:13.989Z,2.40
2017-12-10T00:07:47.542Z,3.43
2017-12-10T00:10:21.093Z,5.17
2017-12-10T00:12:54.738Z,3.90
2017-12-10T00:15:28.328Z,2.23
2017-12-10T00:18:01.937Z,2.53
2017-12-10T00:20:35.513Z,2.00
2017-12-10T00:23:09.133Z,1.83
2017-12-10T00:25:42.744Z,1.80
2017-12-10T00:28:16.281Z,2.50
2017-12-10T00:30:49.954Z,2.20
2017-12-10T00:33:23.540Z,1.90
2017-12-10T00:35:57.113Z,1.97
2017-12-10T00:38:30.658Z,2.20
2017-12-10T00:41:04.337Z,1.93
2017-12-10T00:43:37.945Z,2.40
2017-12-10T00:46:12.356Z,2.17
2017-12-10T00:48:46.169Z,1.83
2017-12-10T00:51:19.765Z,2.40
2017-12-10T00:53:53.346Z,1.70
2017-12-10T00:56:26.974Z,1.87
2017-12-10T00:59:01.285Z,1.80
2017-12-10T01:01:34.857Z,1.93
2017-12-10T01:04:08.512Z,1.90
2017-12-10T01:06:42.897Z,1.73
2017-12-10T01:09:16.617Z,1.90
2017-12-10T01:11:50.186Z,1.60
2017-12-10T01:14:23.817Z,1.97
2017-12-10T01:16:57.417Z,1.87
2017-12-10T01:19:31.808Z,1.90
2017-12-10T01:22:05.442Z,2.00
2017-12-10T01:24:39.181Z,2.00
2017-12-10T01:27:13.537Z,1.83
2017-12-10T01:29:47.156Z,1.83
2017-12-10T01:32:20.760Z,1.77
2017-12-10T01:34:54.269Z,2.13
2017-12-10T01:37:28.009Z,1.97
2017-12-10T01:40:01.664Z,1.67
2017-12-10T01:42:35.269Z,1.67
2017-12-10T01:45:08.829Z,2.40
2017-12-10T01:47:42.473Z,1.70
2017-12-10T01:50:16.069Z,2.17
2017-12-10T01:52:49.564Z,2.20
2017-12-10T01:55:23.045Z,1.90
2017-12-10T01:57:56.873Z,1.97
2017-12-10T02:00:31.113Z,1.87
2017-12-10T02:03:04.654Z,1.70
2017-12-10T02:05:38.193Z,1.50
2017-12-10T02:08:11.692Z,1.60
2017-12-10T02:10:45.136Z,2.00
2017-12-10T02:13:18.789Z,2.47
2017-12-10T02:15:52.389Z,2.07
2017-12-10T02:18:25.984Z,3.30
2017-12-10T02:20:59.524Z,1.70
2017-12-10T02:23:33.199Z,1.90
2017-12-10T02:26:07.517Z,1.83
2017-12-10T02:28:41.000Z,1.80
2017-12-10T02:31:14.594Z,2.00
2017-12-10T02:33:48.228Z,2.33
2017-12-10T02:36:21.708Z,1.80
2017-12-10T02:38:55.173Z,1.60
2017-12-10T02:41:28.836Z,1.70
2017-12-10T02:44:03.232Z,1.83
2017-12-10T02:46:36.821Z,1.67
2017-12-10T02:49:10.429Z,2.20
2017-12-10T02:51:44.134Z,1.60
2017-12-10T02:54:17.593Z,1.90
2017-12-10T02:56:51.432Z,1.60
2017-12-10T02:59:24.885Z,1.93
2017-12-10T03:01:58.873Z,2.30
2017-12-10T03:04:32.481Z,2.20
2017-12-10T03:07:06.036Z,1.80
2017-12-10T03:09:39.612Z,1.83
2017-12-10T03:12:13.097Z,2.43
2017-12-10T03:14:46.721Z,2.30
2017-12-10T03:17:20.346Z,1.87
2017-12-10T03:19:53.945Z,1.80
2017-12-10T03:22:27.408Z,2.47
2017-12-10T03:25:01.053Z,2.50
2017-12-10T03:27:34.654Z,2.50
2017-12-10T03:30:08.105Z,2.10
2017-12-10T03:32:41.696Z,2.00
2017-12-10T03:35:15.396Z,2.60
2017-12-10T03:37:48.853Z,2.43
2017-12-10T03:40:22.444Z,2.40
2017-12-10T03:42:56.008Z,2.33
2017-12-10T03:45:29.645Z,2.70
2017-12-10T03:48:03.222Z,2.60
2017-12-10T03:50:36.729Z,2.50
2017-12-10T03:53:10.449Z,2.47
2017-12-10T03:55:44.053Z,2.73
2017-12-10T03:58:18.327Z,2.27
2017-12-10T04:00:51.964Z,3.07
2017-12-10T04:03:25.569Z,2.67
2017-12-10T04:05:59.070Z,2.50
2017-12-10T04:08:32.669Z,3.30
2017-12-10T04:11:06.244Z,2.20
2017-12-10T04:13:40.485Z,3.17
2017-12-10T04:16:14.113Z,2.47
2017-12-10T04:18:48.041Z,2.47
2017-12-10T04:21:22.502Z,3.00
2017-12-10T04:23:56.905Z,2.20
2017-12-10T04:26:30.538Z,2.87
2017-12-10T04:29:04.138Z,2.13
2017-12-10T04:31:38.437Z,3.03
2017-12-10T04:34:12.124Z,2.47
2017-12-10T04:36:45.765Z,2.93
2017-12-10T04:39:19.313Z,2.80
2017-12-10T04:41:52.921Z,2.90
2017-12-10T04:44:26.769Z,2.10
2017-12-10T04:47:00.318Z,2.80
2017-12-10T04:49:33.825Z,2.23
2017-12-10T04:52:07.565Z,2.40
2017-12-10T04:54:41.884Z,2.77
2017-12-10T04:57:15.524Z,2.60
2017-12-10T04:59:49.137Z,2.57
2017-12-10T05:02:22.761Z,3.10
2017-12-10T05:04:56.393Z,3.23
2017-12-10T05:07:29.997Z,3.07
2017-12-10T05:10:04.357Z,2.90
2017-12-10T05:12:37.969Z,2.80
2017-12-10T05:15:11.617Z,2.93
2017-12-10T05:17:45.321Z,3.33
2017-12-10T05:20:18.866Z,2.20
2017-12-10T05:22:52.589Z,2.50
2017-12-10T05:25:26.077Z,3.57
2017-12-10T05:27:59.726Z,3.07
2017-12-10T05:30:33.317Z,2.90
2017-12-10T05:33:06.882Z,2.53
2017-12-10T05:35:40.386Z,2.83
2017-12-10T05:38:14.129Z,3.10
2017-12-10T05:40:47.733Z,3.57
2017-12-10T05:43:21.433Z,3.10
2017-12-10T05:45:55.033Z,2.70
2017-12-10T05:48:28.600Z,3.30
2017-12-10T05:51:02.133Z,2.60
2017-12-10T05:53:35.600Z,3.00
2017-12-10T05:56:09.906Z,3.40
2017-12-10T05:58:43.653Z,3.73
2017-12-10T06:01:17.213Z,4.07
2017-12-10T06:03:50.854Z,2.90
2017-12-10T06:06:24.456Z,2.97
2017-12-10T06:08:58.057Z,2.40
2017-12-10T06:11:34.078Z,2.67
2017-12-10T06:14:07.713Z,2.83
2017-12-10T06:16:41.577Z,2.97
2017-12-10T06:19:15.221Z,2.83
2017-12-10T06:21:48.821Z,3.10
2017-12-10T06:24:22.410Z,3.30
2017-12-10T06:26:56.229Z,3.20
2017-12-10T06:29:29.777Z,2.80
2017-12-10T06:32:03.343Z,2.30
2017-12-10T06:34:36.924Z,2.93
2017-12-10T06:37:10.533Z,3.57
2017-12-10T06:39:44.029Z,2.90
2017-12-10T06:42:17.633Z,2.47
2017-12-10T06:44:51.205Z,3.57
2017-12-10T06:47:25.521Z,3.00
2017-12-10T06:49:59.865Z,3.37
2017-12-10T06:52:33.470Z,3.03
2017-12-10T06:55:06.973Z,2.90
2017-12-10T06:57:40.744Z,2.80
2017-12-10T07:00:14.336Z,2.57
2017-12-10T07:02:47.927Z,3.30
2017-12-10T07:05:21.748Z,2.90
2017-12-10T07:07:55.290Z,2.93
2017-12-10T07:10:29.588Z,2.30
2017-12-10T07:13:03.301Z,3.10
2017-12-10T07:15:36.873Z,2.57
2017-12-10T07:18:10.502Z,2.30
2017-12-10T07:20:44.304Z,3.20
2017-12-10T07:23:18.294Z,3.97
2017-12-10T07:25:51.889Z,2.30
2017-12-10T07:28:25.453Z,2.57
2017-12-10T07:30:59.113Z,3.07
2017-12-10T07:33:32.618Z,2.70
2017-12-10T07:36:06.197Z,2.30
2017-12-10T07:38:39.817Z,2.70
2017-12-10T07:41:13.397Z,2.30
2017-12-10T07:43:46.918Z,2.23
2017-12-10T07:46:20.482Z,2.33
2017-12-10T07:48:54.121Z,2.17
2017-12-10T07:51:27.721Z,1.83
2017-12-10T07:54:01.321Z,2.20
2017-12-10T07:56:35.010Z,2.00
2017-12-10T07:59:09.446Z,2.10
2017-12-10T08:01:43.150Z,2.13
2017-12-10T08:04:16.641Z,2.50
2017-12-10T08:06:50.201Z,2.40
2017-12-10T08:09:23.740Z,2.40
2017-12-10T08:11:57.345Z,2.23
2017-12-10T08:14:31.170Z,1.50
2017-12-10T08:17:04.894Z,1.80
2017-12-10T08:19:38.460Z,2.20
2017-12-10T08:22:12.740Z,2.37
2017-12-10T08:24:46.373Z,1.80
2017-12-10T08:27:20.029Z,2.47
2017-12-10T08:29:53.541Z,1.80
2017-12-10T08:32:27.204Z,1.90
2017-12-10T08:35:00.881Z,1.63
2017-12-10T08:37:34.316Z,1.97
2017-12-10T08:40:07.872Z,1.70
2017-12-10T08:42:41.353Z,2.00
2017-12-10T08:45:14.809Z,1.77
2017-12-10T08:47:48.374Z,1.30
2017-12-10T08:50:22.697Z,1.60
2017-12-10T08:52:56.266Z,1.50
2017-12-10T08:55:30.570Z,1.53
2017-12-10T08:58:04.218Z,1.80
2017-12-10T09:00:37.749Z,1.83
2017-12-10T09:03:11.404Z,1.87
2017-12-10T09:05:44.842Z,1.60
2017-12-10T09:08:18.561Z,1.70
2017-12-10T09:10:52.130Z,1.83
2017-12-10T09:13:25.666Z,2.20
2017-12-10T09:15:59.217Z,2.20
2017-12-10T09:18:32.816Z,1.80
2017-12-10T09:21:06.358Z,1.97
2017-12-10T09:23:40.081Z,2.57
2017-12-10T09:26:13.514Z,1.93
2017-12-10T09:28:47.113Z,1.43
2017-12-10T09:31:20.668Z,1.73
2017-12-10T09:33:54.269Z,2.00
2017-12-10T09:36:27.753Z,1.90
2017-12-10T09:39:01.422Z,1.63
2017-12-10T09:41:35.329Z,1.70
2017-12-10T09:44:09.025Z,1.77
2017-12-10T09:46:42.553Z,2.00
2017-12-10T09:49:16.230Z,1.57
2017-12-10T09:51:50.713Z,2.00
2017-12-10T09:54:24.246Z,2.20
2017-12-10T09:56:57.953Z,1.90
2017-12-10T09:59:31.469Z,1.70
2017-12-10T10:02:05.013Z,2.00
2017-12-10T10:04:38.749Z,1.90
2017-12-10T10:07:13.038Z,2.70
2017-12-10T10:09:46.574Z,1.50
2017-12-10T10:12:20.176Z,2.07
2017-12-10T10:14:53.868Z,2.30
2017-12-10T10:17:27.425Z,2.53
2017-12-10T10:20:01.079Z,1.80
2017-12-10T10:22:34.684Z,2.50
2017-12-10T10:25:08.278Z,2.27
2017-12-10T10:27:41.840Z,1.93
2017-12-10T10:30:15.445Z,2.13
2017-12-10T10:32:49.285Z,1.80
2017-12-10T10:35:22.989Z,1.97
2017-12-10T10:37:57.573Z,2.20
2017-12-10T10:40:31.177Z,1.77
2017-12-10T10:43:04.808Z,1.80
2017-12-10T10:45:38.408Z,1.87
2017-12-10T10:48:12.017Z,1.80
2017-12-10T10:50:45.581Z,1.60
2017-12-10T10:53:19.117Z,1.60
2017-12-10T10:55:52.717Z,1.87
2017-12-10T10:58:26.337Z,1.60
2017-12-10T11:00:59.981Z,2.57
2017-12-10T11:03:33.621Z,1.87
2017-12-10T11:06:07.289Z,1.70
2017-12-10T11:08:40.773Z,1.80
2017-12-10T11:11:14.521Z,1.53
2017-12-10T11:13:48.033Z,1.73
2017-12-10T11:16:21.730Z,1.80
2017-12-10T11:18:55.222Z,2.07
2017-12-10T11:21:28.824Z,2.70
2017-12-10T11:24:02.429Z,2.67
2017-12-10T11:26:36.030Z,1.83
2017-12-10T11:29:09.638Z,1.60
2017-12-10T11:31:43.235Z,2.13
2017-12-10T11:34:16.761Z,1.70
2017-12-10T11:36:50.401Z,1.37
2017-12-10T11:39:23.925Z,1.83
2017-12-10T11:41:57.533Z,1.60
2017-12-10T11:44:31.074Z,1.60
2017-12-10T11:47:04.829Z,1.77
2017-12-10T11:49:38.541Z,1.70
2017-12-10T11:52:12.260Z,1.20
2017-12-10T11:54:45.809Z,1.60
2017-12-10T11:57:19.601Z,1.73
2017-12-10T11:59:53.253Z,1.40
2017-12-10T12:02:26.817Z,2.00
2017-12-10T12:05:00.453Z,1.67
2017-12-10T12:07:34.092Z,1.47
2017-12-10T12:10:07.605Z,1.80
2017-12-10T12:12:41.234Z,1.97
2017-12-10T12:15:15.065Z,2.00
2017-12-10T12:17:48.670Z,5.93
2017-12-10T12:20:22.360Z,2.13
2017-12-10T12:22:55.945Z,1.70
2017-12-10T12:25:29.773Z,2.50
2017-12-10T12:28:03.324Z,1.73
2017-12-10T12:30:36.973Z,1.57
2017-12-10T12:33:10.528Z,1.50
2017-12-10T12:35:45.714Z,1.27
2017-12-10T12:38:19.353Z,1.87
2017-12-10T12:40:52.918Z,2.00
2017-12-10T12:43:26.513Z,1.90
2017-12-10T12:46:00.078Z,1.40
2017-12-10T12:48:33.668Z,1.93
2017-12-10T12:51:07.312Z,1.43
2017-12-10T12:53:40.913Z,1.83
2017-12-10T12:56:14.417Z,1.97
2017-12-10T12:58:48.192Z,1.47
2017-12-10T13:01:21.712Z,1.60
2017-12-10T13:03:56.037Z,1.47
2017-12-10T13:06:29.632Z,1.50
2017-12-10T13:09:03.205Z,1.40
2017-12-10T13:11:36.745Z,1.70
2017-12-10T13:14:10.286Z,1.53
2017-12-10T13:16:43.837Z,2.00
2017-12-10T13:19:17.390Z,2.27
2017-12-10T13:21:51.549Z,2.13
2017-12-10T13:24:25.357Z,1.90
2017-12-10T13:26:58.862Z,1.67
2017-12-10T13:29:32.453Z,1.43
2017-12-10T13:32:06.057Z,1.63
2017-12-10T13:34:39.609Z,1.70
2017-12-10T13:37:13.153Z,1.60
2017-12-10T13:39:46.866Z,1.30
2017-12-10T13:42:20.430Z,1.97
2017-12-10T13:44:54.115Z,1.70
2017-12-10T13:47:28.449Z,1.70
2017-12-10T13:50:01.981Z,1.97
2017-12-10T13:52:35.580Z,1.97
2017-12-10T13:55:09.113Z,1.63
2017-12-10T13:57:42.737Z,1.77
2017-12-10T14:00:16.476Z,1.40
2017-12-10T14:02:50.086Z,1.43
2017-12-10T14:05:23.685Z,2.37
2017-12-10T14:07:57.184Z,1.70
2017-12-10T14:10:30.785Z,1.40
2017-12-10T14:13:04.454Z,1.60
2017-12-10T14:15:38.090Z,1.90
2017-12-10T14:18:11.697Z,2.03
2017-12-10T14:20:45.284Z,1.73
2017-12-10T14:23:18.858Z,2.00
2017-12-10T14:25:52.475Z,2.13
2017-12-10T14:28:26.094Z,2.60
2017-12-10T14:30:59.658Z,2.20
2017-12-10T14:33:33.136Z,2.10
2017-12-10T14:36:06.793Z,1.50
2017-12-10T14:38:40.601Z,2.20
2017-12-10T14:41:14.165Z,2.23
2017-12-10T14:43:47.757Z,1.83
2017-12-10T14:46:21.610Z,1.50
2017-12-10T14:48:55.184Z,1.90
2017-12-10T14:51:28.862Z,1.70
2017-12-10T14:54:02.369Z,1.73
2017-12-10T14:56:36.009Z,1.70
2017-12-10T14:59:09.605Z,1.80
2017-12-10T15:01:43.181Z,2.40
2017-12-10T15:04:16.705Z,2.63
2017-12-10T15:06:50.181Z,2.07
2017-12-10T15:09:23.774Z,2.30
2017-12-10T15:11:57.373Z,2.27
2017-12-10T15:14:31.013Z,2.00
2017-12-10T15:17:04.523Z,2.50
2017-12-10T15:19:38.110Z,2.77
2017-12-10T15:22:11.923Z,2.37
2017-12-10T15:24:45.517Z,2.57
2017-12-10T15:27:19.117Z,2.83
2017-12-10T15:29:52.925Z,2.60
2017-12-10T15:32:26.469Z,3.70
2017-12-10T15:35:00.022Z,2.90
2017-12-10T15:37:33.626Z,3.57
2017-12-10T15:40:07.100Z,3.43
2017-12-10T15:42:40.681Z,3.40
2017-12-10T15:45:14.222Z,3.30
2017-12-10T15:47:47.712Z,3.70
2017-12-10T15:50:21.311Z,4.23
2017-12-10T15:52:54.870Z,3.97
2017-12-10T15:55:28.373Z,4.03
2017-12-10T15:58:02.021Z,4.30
2017-12-10T16:00:35.626Z,4.40
2017-12-10T16:03:09.220Z,4.37
2017-12-10T16:05:43.693Z,4.67
2017-12-10T16:08:17.345Z,3.93
2017-12-10T16:10:50.956Z,4.53
2017-12-10T16:13:25.437Z,4.53
2017-12-10T16:15:59.844Z,4.70
2017-12-10T16:18:33.588Z,4.63
2017-12-10T16:21:07.128Z,4.50
2017-12-10T16:23:40.898Z,4.93
2017-12-10T16:26:14.445Z,5.43
2017-12-10T16:28:48.065Z,5.90
2017-12-10T16:31:21.545Z,4.80
2017-12-10T16:33:55.321Z,5.63
2017-12-10T16:36:29.006Z,5.67
2017-12-10T16:39:02.576Z,5.13
2017-12-10T16:41:36.165Z,6.20
2017-12-10T16:44:09.810Z,5.77
2017-12-10T16:46:43.410Z,5.13
2017-12-10T16:49:16.905Z,5.30
2017-12-10T16:51:50.500Z,5.80
2017-12-10T16:54:24.014Z,6.10
2017-12-10T16:56:57.600Z,6.37
2017-12-10T16:59:31.109Z,6.17
2017-12-10T17:02:04.565Z,5.50
2017-12-10T17:04:38.255Z,6.43
2017-12-10T17:07:12.386Z,6.07
2017-12-10T17:09:46.226Z,6.60
2017-12-10T17:12:19.849Z,5.80
2017-12-10T17:14:53.533Z,5.67
2017-12-10T17:17:27.124Z,6.10
2017-12-10T17:20:00.688Z,5.83
2017-12-10T17:22:34.233Z,5.50
2017-12-10T17:25:07.832Z,5.63
2017-12-10T17:27:41.268Z,5.50
2017-12-10T17:30:14.902Z,5.50
2017-12-10T17:32:48.533Z,5.23
2017-12-10T17:35:22.105Z,6.17
2017-12-10T17:37:55.749Z,6.00
2017-12-10T17:40:29.285Z,5.53
2017-12-10T17:43:02.832Z,6.03
2017-12-10T17:45:36.434Z,6.00
2017-12-10T17:48:10.006Z,6.40
2017-12-10T17:50:43.641Z,6.47
2017-12-10T17:53:17.941Z,6.57
2017-12-10T17:55:51.458Z,5.53
2017-12-10T17:58:24.916Z,6.27
2017-12-10T18:00:58.513Z,6.63
2017-12-10T18:03:32.049Z,6.00
2017-12-10T18:06:05.657Z,6.90
2017-12-10T18:08:39.353Z,6.43
2017-12-10T18:11:12.808Z,6.70
2017-12-10T18:13:47.165Z,6.40
2017-12-10T18:16:20.770Z,6.77
2017-12-10T18:18:54.473Z,6.03
2017-12-10T18:21:28.081Z,6.33
2017-12-10T18:24:01.682Z,6.73
2017-12-10T18:26:35.248Z,6.97
2017-12-10T18:29:08.776Z,6.90
2017-12-10T18:31:42.374Z,6.70
2017-12-10T18:34:17.408Z,6.00
2017-12-10T18:36:51.113Z,6.30
2017-12-10T18:39:24.673Z,6.27
2017-12-10T18:41:58.377Z,6.43
2017-12-10T18:44:32.122Z,6.30
2017-12-10T18:47:05.581Z,6.30
2017-12-10T18:49:39.212Z,6.30
2017-12-10T18:52:12.928Z,6.83
2017-12-10T18:54:46.520Z,6.23
2017-12-10T18:57:20.090Z,5.93
2017-12-10T18:59:53.592Z,5.13
2017-12-10T19:02:28.109Z,5.90
2017-12-10T19:05:01.740Z,5.40
2017-12-10T19:07:35.444Z,5.13
2017-12-10T19:10:09.013Z,5.10
2017-12-10T19:12:42.614Z,4.70
2017-12-10T19:15:16.118Z,4.43
2017-12-10T19:17:49.753Z,3.53
2017-12-10T19:20:24.041Z,5.13
2017-12-10T19:22:58.386Z,4.70
2017-12-10T19:25:32.184Z,4.43
2017-12-10T19:28:05.702Z,4.40
2017-12-10T19:30:39.289Z,4.70
2017-12-10T19:33:12.896Z,5.10
2017-12-10T19:35:46.392Z,5.20
2017-12-10T19:38:20.100Z,4.90
2017-12-10T19:40:53.653Z,4.90
2017-12-10T19:43:27.297Z,5.03
2017-12-10T19:46:00.897Z,3.63
2017-12-10T19:48:34.502Z,4.30
2017-12-10T19:51:08.201Z,4.27
2017-12-10T19:53:41.697Z,3.43
2017-12-10T19:56:15.197Z,3.80
2017-12-10T19:58:48.736Z,3.30
2017-12-10T20:01:22.398Z,3.80
2017-12-10T20:03:58.665Z,3.40
2017-12-10T20:06:32.162Z,3.37
2017-12-10T20:09:05.605Z,3.20
2017-12-10T20:11:39.113Z,3.10
2017-12-10T20:14:12.717Z,4.00
2017-12-10T20:16:46.365Z,3.50
2017-12-10T20:19:20.064Z,3.13
2017-12-10T20:21:53.657Z,3.27
2017-12-10T20:24:27.266Z,3.23
2017-12-10T20:27:00.741Z,3.90
2017-12-10T20:29:34.365Z,4.13
2017-12-10T20:32:07.869Z,4.00
2017-12-10T20:34:41.352Z,3.87
2017-12-10T20:37:14.902Z,3.57
2017-12-10T20:39:48.606Z,3.90
2017-12-10T20:42:22.157Z,3.47
2017-12-10T20:44:55.652Z,3.60
2017-12-10T20:47:29.165Z,3.83
2017-12-10T20:50:02.817Z,4.27
2017-12-10T20:52:36.352Z,4.50
2017-12-10T20:55:09.917Z,3.77
2017-12-10T20:57:43.461Z,4.73
2017-12-10T21:00:19.793Z,4.60
2017-12-10T21:02:53.628Z,4.83
2017-12-10T21:05:27.114Z,3.53
2017-12-10T21:08:00.694Z,2.77
2017-12-10T21:10:35.109Z,3.30
2017-12-10T21:13:09.461Z,3.00
2017-12-10T21:15:43.048Z,3.43
2017-12-10T21:18:16.672Z,3.17
2017-12-10T21:20:50.253Z,2.67
2017-12-10T21:23:23.805Z,2.97
2017-12-10T21:25:57.336Z,10.00
2017-12-10T21:28:31.684Z,14.40
2017-12-10T21:31:05.242Z,8.17
2017-12-10T21:33:38.825Z,3.87
2017-12-10T21:36:12.498Z,3.23
2017-12-10T21:38:46.036Z,3.40
2017-12-10T21:41:19.699Z,3.50
2017-12-10T21:43:54.050Z,3.30
2017-12-10T21:46:28.410Z,2.90
2017-12-10T21:49:01.993Z,3.30
2017-12-10T21:51:35.734Z,2.50
2017-12-10T21:54:09.333Z,2.70
2017-12-10T21:56:42.898Z,2.03
2017-12-10T21:59:16.433Z,1.93
2017-12-10T22:01:50.750Z,1.10
2017-12-10T22:04:24.349Z,0.70
2017-12-10T22:06:57.970Z,0.60
2017-12-10T22:09:31.454Z,0.60
2017-12-10T22:12:05.053Z,0.70
2017-12-10T22:14:38.653Z,0.50
2017-12-10T22:17:12.197Z,0.50
2017-12-10T22:19:45.717Z,0.50
2017-12-10T22:22:19.405Z,0.50
2017-12-10T22:24:52.916Z,0.50
2017-12-10T22:27:26.553Z,0.47
2017-12-10T22:30:00.021Z,0.40
2017-12-10T22:32:33.749Z,0.70
2017-12-10T22:35:07.357Z,0.50
2017-12-10T22:37:41.006Z,0.47
2017-12-10T22:40:14.490Z,0.53
2017-12-10T22:42:48.982Z,0.60
2017-12-10T22:45:23.257Z,0.63
2017-12-10T22:47:57.581Z,0.50
2017-12-10T22:50:31.217Z,0.50
2017-12-10T22:53:04.774Z,0.70
2017-12-10T22:55:38.314Z,0.70
2017-12-10T22:58:11.858Z,0.60
2017-12-10T23:00:45.414Z,0.50
2017-12-10T23:03:19.021Z,0.60
2017-12-10T23:05:52.812Z,0.70
2017-12-10T23:08:26.634Z,0.60
2017-12-10T23:11:00.325Z,1.03
2017-12-10T23:13:46.010Z,0.80
2017-12-10T23:16:26.474Z,0.87
2017-12-10T23:19:01.001Z,1.40
2017-12-10T23:21:34.497Z,0.70
2017-12-10T23:24:08.097Z,0.83
2017-12-10T23:26:41.741Z,0.67
2017-12-10T23:29:16.329Z,0.80
2017-12-10T23:31:49.829Z,0.70
2017-12-10T23:34:23.521Z,1.07
2017-12-10T23:36:57.089Z,0.90
2017-12-10T23:39:30.834Z,0.83
2017-12-10T23:42:04.529Z,0.90
2017-12-10T23:44:38.134Z,0.60
2017-12-10T23:47:11.842Z,0.70
2017-12-10T23:49:45.539Z,0.70
2017-12-10T23:52:19.857Z,0.60
2017-12-10T23:54:53.458Z,0.80
2017-12-10T23:57:27.253Z,0.60
